Time;durP1;ratioP1;P1;durP2;ratioP2;P2;SDS_P1;SDS_P2;PMS_P1;PMS_P2;Temp;Humidity;BMP_temperature;BMP_pressure;BME280_temperature;BME280_humidity;BME280_pressure;Samples;Min_cycle;Max_cycle;Signal;HPM_P1;HPM_P2
2021/07/14 00:02:15;;;;;;;38.80;31.07;;;20.80;99.90;;;;;;5065667;28;20471;-84
2021/07/14 00:04:42;;;;;;;38.40;31.53;;;20.80;99.90;;;;;;5073591;28;20454;-83
2021/07/14 00:07:09;;;;;;;37.90;30.60;;;20.80;99.90;;;;;;5081126;28;20449;-85
2021/07/14 00:09:36;;;;;;;39.93;30.57;;;20.80;99.90;;;;;;5061005;28;20480;-83
2021/07/14 00:12:08;;;;;;;42.03;34.10;;;20.80;99.90;;;;;;5080859;28;20513;-82
2021/07/14 00:14:57;;;;;;;41.90;32.90;;;20.80;99.90;;;;;;5086577;28;20457;-84
2021/07/14 00:17:31;;;;;;;40.67;31.77;;;20.70;99.90;;;;;;5088359;28;20440;-83
2021/07/14 00:22:42;;;;;;;40.97;31.07;;;20.70;99.90;;;;;;5085906;28;20970;-83
2021/07/14 00:25:12;;;;;;;37.80;31.77;;;20.70;99.90;;;;;;5078231;28;20452;-84
2021/07/14 00:27:43;;;;;;;42.20;33.20;;;20.70;99.90;;;;;;5046329;28;20452;-82
2021/07/14 00:30:15;;;;;;;40.03;32.50;;;20.70;99.90;;;;;;5056846;28;20452;-82
2021/07/14 00:32:42;;;;;;;38.43;30.47;;;20.70;99.90;;;;;;5065398;28;21022;-83
2021/07/14 00:35:11;;;;;;;40.37;31.90;;;20.70;99.90;;;;;;5066167;28;20452;-83
2021/07/14 00:37:38;;;;;;;38.63;30.00;;;20.70;99.90;;;;;;5064872;28;20451;-83
2021/07/14 00:40:09;;;;;;;38.97;30.20;;;20.70;99.90;;;;;;5065310;28;20448;-82
2021/07/14 00:42:36;;;;;;;38.03;30.50;;;20.60;99.90;;;;;;5065672;28;20539;-84
2021/07/14 00:45:05;;;;;;;39.30;30.87;;;20.60;99.90;;;;;;5063698;28;20523;-83
2021/07/14 00:47:34;;;;;;;43.03;32.57;;;20.60;99.90;;;;;;5061426;28;20488;-83
2021/07/14 00:50:02;;;;;;;37.50;30.77;;;20.60;99.90;;;;;;5065767;28;20459;-83
2021/07/14 00:52:29;;;;;;;37.23;30.30;;;20.60;99.90;;;;;;5065209;28;20621;-83
2021/07/14 00:54:58;;;;;;;40.40;31.97;;;20.60;99.90;;;;;;5065915;28;20456;-83
2021/07/14 00:57:27;;;;;;;37.00;30.07;;;20.50;99.90;;;;;;5065078;28;20982;-83
2021/07/14 00:59:54;;;;;;;41.57;34.40;;;20.50;99.90;;;;;;5064417;28;20456;-83
2021/07/14 01:02:23;;;;;;;38.97;30.90;;;20.50;99.90;;;;;;5061408;28;20888;-84
2021/07/14 01:04:57;;;;;;;36.70;29.20;;;20.50;99.90;;;;;;5046690;28;21039;-83
2021/07/14 01:07:27;;;;;;;37.33;29.40;;;20.50;99.90;;;;;;5050807;28;20452;-83
2021/07/14 01:09:57;;;;;;;35.20;30.40;;;20.50;99.90;;;;;;5050696;28;20450;-82
2021/07/14 01:12:31;;;;;;;33.70;29.30;;;20.60;99.90;;;;;;5049747;28;20495;-84
2021/07/14 01:15:04;;;;;;;36.30;30.00;;;20.60;99.90;;;;;;5050659;28;20454;-83
2021/07/14 01:17:37;;;;;;;38.20;31.10;;;20.60;99.90;;;;;;5051281;28;20429;-84
2021/07/14 01:20:18;;;;;;;37.87;30.60;;;20.60;99.90;;;;;;5065031;28;20451;-84
2021/07/14 01:22:54;;;;;;;39.13;30.50;;;20.50;99.90;;;;;;5069828;28;20436;-84
2021/07/14 01:25:32;;;;;;;34.50;28.80;;;20.50;99.90;;;;;;5070982;28;20443;-83
2021/07/14 01:28:02;;;;;;;35.57;30.10;;;20.50;99.90;;;;;;5070979;28;20446;-83
2021/07/14 01:30:29;;;;;;;40.20;31.00;;;20.50;99.90;;;;;;5075123;28;20447;-83
2021/07/14 01:32:58;;;;;;;35.83;30.27;;;20.50;99.90;;;;;;5079846;28;20479;-84
2021/07/14 01:35:28;;;;;;;38.17;30.27;;;20.50;99.90;;;;;;5086174;28;20459;-84
2021/07/14 01:37:56;;;;;;;38.03;31.53;;;20.50;99.90;;;;;;5073656;28;20515;-83
2021/07/14 01:40:25;;;;;;;39.83;31.87;;;20.50;99.90;;;;;;5067090;28;20464;-84
2021/07/14 01:42:56;;;;;;;34.67;29.10;;;20.50;99.90;;;;;;5049746;28;20518;-84
2021/07/14 01:45:27;;;;;;;39.73;31.93;;;20.50;99.90;;;;;;5060976;28;20465;-84
2021/07/14 01:47:55;;;;;;;39.80;32.30;;;20.50;99.90;;;;;;5078612;28;20448;-83
2021/07/14 01:50:23;;;;;;;40.80;32.90;;;20.50;99.90;;;;;;5081723;28;20431;-83
2021/07/14 01:52:53;;;;;;;38.87;31.33;;;20.50;99.90;;;;;;5077914;28;20489;-85
2021/07/14 01:55:21;;;;;;;41.97;33.63;;;20.40;99.90;;;;;;5078209;28;20452;-84
2021/07/14 01:57:48;;;;;;;38.50;32.47;;;20.40;99.90;;;;;;5086878;28;20447;-83
2021/07/14 02:00:16;;;;;;;41.53;34.33;;;20.40;99.90;;;;;;5089566;28;20455;-84
2021/07/14 02:02:53;;;;;;;37.77;31.27;;;20.40;99.90;;;;;;5089438;28;20659;-83
2021/07/14 02:05:21;;;;;;;43.10;34.13;;;20.40;99.90;;;;;;5089492;28;20443;-82
2021/07/14 02:07:48;;;;;;;40.43;32.53;;;20.40;99.90;;;;;;5083102;28;20457;-84
2021/07/14 02:10:15;;;;;;;40.87;32.47;;;20.40;99.90;;;;;;5067681;28;20451;-83
2021/07/14 02:12:47;;;;;;;41.93;34.60;;;20.40;99.90;;;;;;5068577;28;20488;-84
2021/07/14 02:15:14;;;;;;;43.40;34.67;;;20.40;99.90;;;;;;5067691;28;20475;-84
2021/07/14 02:17:51;;;;;;;39.30;31.87;;;20.40;99.90;;;;;;5069632;28;20448;-83
2021/07/14 02:20:21;;;;;;;39.67;34.40;;;20.40;99.90;;;;;;5068301;28;20456;-83
2021/07/14 02:22:48;;;;;;;44.43;35.93;;;20.40;99.90;;;;;;5069183;28;20464;-84
2021/07/14 02:25:16;;;;;;;47.13;36.63;;;20.40;99.90;;;;;;5053412;28;20459;-85
2021/07/14 02:27:44;;;;;;;46.87;37.87;;;20.40;99.90;;;;;;5048899;28;20454;-85
2021/07/14 02:30:18;;;;;;;43.10;34.93;;;20.30;99.90;;;;;;5054923;28;20546;-83
2021/07/14 02:32:48;;;;;;;45.60;35.47;;;20.30;99.90;;;;;;5059889;28;20863;-83
2021/07/14 02:35:15;;;;;;;46.50;37.17;;;20.30;99.90;;;;;;5065048;28;20474;-83
2021/07/14 02:37:47;;;;;;;60.03;43.10;;;20.30;99.90;;;;;;5067133;28;20456;-83
2021/07/14 02:40:20;;;;;;;48.73;38.23;;;20.20;99.90;;;;;;5067779;28;20444;-84
2021/07/14 02:42:47;;;;;;;47.53;35.57;;;20.20;99.90;;;;;;5068180;28;20444;-84
2021/07/14 02:45:15;;;;;;;44.23;36.00;;;20.20;99.90;;;;;;5068577;28;20534;-83
2021/07/14 02:47:43;;;;;;;49.53;39.27;;;20.20;99.90;;;;;;5067956;28;20454;-83
2021/07/14 02:50:16;;;;;;;60.70;43.63;;;20.20;99.90;;;;;;5066194;28;20454;-83
2021/07/14 02:52:47;;;;;;;44.00;35.40;;;20.00;99.90;;;;;;5067472;28;20495;-83
2021/07/14 02:55:19;;;;;;;49.47;36.80;;;20.10;99.90;;;;;;5066091;28;20436;-84
2021/07/14 02:57:49;;;;;;;41.97;34.53;;;20.10;99.90;;;;;;5063673;28;20452;-84
2021/07/14 03:00:16;;;;;;;48.70;36.47;;;20.10;99.90;;;;;;5063415;28;20458;-84
2021/07/14 03:02:43;;;;;;;48.20;35.80;;;20.10;99.90;;;;;;5063979;28;20448;-85
2021/07/14 03:05:13;;;;;;;42.10;35.10;;;20.10;99.90;;;;;;5073194;28;20447;-83
2021/07/14 03:07:42;;;;;;;42.60;34.13;;;20.10;99.90;;;;;;5071254;28;20453;-83
2021/07/14 03:10:09;;;;;;;40.23;32.50;;;20.10;99.90;;;;;;5063942;28;20536;-84
2021/07/14 03:12:38;;;;;;;43.30;33.60;;;20.10;99.90;;;;;;5072087;28;20491;-85
2021/07/14 03:15:09;;;;;;;41.30;32.57;;;20.10;99.90;;;;;;5070861;28;20455;-84
2021/07/14 03:17:38;;;;;;;44.27;35.30;;;20.10;99.90;;;;;;5074738;28;20446;-84
2021/07/14 03:20:08;;;;;;;44.30;35.80;;;20.10;99.90;;;;;;5074195;28;20451;-84
2021/07/14 03:22:39;;;;;;;39.77;33.23;;;20.10;99.90;;;;;;5072424;28;20444;-84
2021/07/14 03:25:07;;;;;;;43.70;34.80;;;20.10;99.90;;;;;;5073823;28;20448;-83
2021/07/14 03:27:34;;;;;;;44.77;34.97;;;20.10;99.90;;;;;;5074150;28;20452;-84
2021/07/14 03:30:02;;;;;;;41.13;33.73;;;20.10;99.90;;;;;;5083036;28;20824;-84
2021/07/14 03:32:28;;;;;;;44.10;35.87;;;20.10;99.90;;;;;;5046976;28;20484;-84
2021/07/14 03:34:55;;;;;;;47.23;36.37;;;20.10;99.90;;;;;;5045541;28;20457;-84
2021/07/14 03:37:23;;;;;;;48.97;37.97;;;20.10;99.90;;;;;;5043795;28;20451;-83
2021/07/14 03:39:53;;;;;;;48.63;36.20;;;20.20;99.90;;;;;;5044574;28;20979;-84
2021/07/14 03:42:20;;;;;;;50.23;37.00;;;20.10;99.90;;;;;;5044317;28;20461;-84
2021/07/14 03:44:49;;;;;;;46.23;34.73;;;20.10;99.90;;;;;;5041565;28;20460;-84
2021/07/14 03:47:17;;;;;;;48.80;36.30;;;20.10;99.90;;;;;;5041395;28;20897;-82
2021/07/14 03:49:46;;;;;;;51.90;37.57;;;20.00;99.90;;;;;;5040471;28;20946;-84
2021/07/14 03:52:14;;;;;;;65.73;42.50;;;20.00;99.90;;;;;;5039956;28;20535;-82
2021/07/14 03:54:41;;;;;;;47.30;34.50;;;20.00;99.90;;;;;;5040216;28;20540;-83
2021/07/14 03:57:11;;;;;;;49.30;34.83;;;20.00;99.90;;;;;;5042466;28;20456;-83
2021/07/14 03:59:38;;;;;;;48.57;35.53;;;20.00;99.90;;;;;;5040502;28;20453;-84
2021/07/14 04:02:08;;;;;;;52.17;37.60;;;20.00;99.90;;;;;;5038681;28;20468;-84
2021/07/14 04:04:35;;;;;;;51.00;38.87;;;19.90;99.90;;;;;;5039968;28;20457;-84
2021/07/14 04:07:09;;;;;;;52.43;37.40;;;19.90;99.90;;;;;;5059548;23;20576;-84
2021/07/14 04:09:36;;;;;;;49.50;34.77;;;19.90;99.90;;;;;;5020384;28;20445;-84
2021/07/14 04:12:04;;;;;;;53.53;38.90;;;20.00;99.90;;;;;;5019424;28;20460;-85
2021/07/14 04:14:32;;;;;;;49.13;35.27;;;20.00;99.90;;;;;;5017564;28;20489;-84
2021/07/14 04:16:59;;;;;;;50.40;37.60;;;20.00;99.90;;;;;;5019630;28;20552;-83
2021/07/14 04:19:26;;;;;;;52.27;35.60;;;20.00;99.90;;;;;;5031728;28;20735;-84
2021/07/14 04:21:54;;;;;;;51.67;37.87;;;20.00;99.90;;;;;;5013753;28;20467;-84
2021/07/14 04:24:21;;;;;;;46.93;33.90;;;19.90;99.90;;;;;;5025755;28;20553;-84
2021/07/14 04:26:48;;;;;;;46.63;35.33;;;19.90;99.90;;;;;;5033553;28;20461;-82
2021/07/14 04:29:16;;;;;;;53.60;38.90;;;19.90;99.90;;;;;;5007780;28;20452;-84
2021/07/14 04:31:45;;;;;;;50.23;35.80;;;19.90;99.90;;;;;;5022691;28;20464;-83
2021/07/14 04:34:12;;;;;;;62.30;37.50;;;20.00;99.90;;;;;;5019826;28;20492;-83
2021/07/14 04:36:41;;;;;;;47.20;36.03;;;20.00;99.90;;;;;;5016930;28;20868;-83
2021/07/14 04:39:09;;;;;;;49.40;36.10;;;20.00;99.90;;;;;;5004063;28;20846;-84
2021/07/14 04:41:36;;;;;;;46.67;33.83;;;19.90;99.90;;;;;;5001595;28;20450;-84
2021/07/14 04:44:04;;;;;;;44.50;35.10;;;19.90;99.90;;;;;;5003235;28;20533;-85
2021/07/14 04:46:32;;;;;;;44.27;32.53;;;20.00;99.90;;;;;;5001260;28;20532;-84
2021/07/14 04:49:01;;;;;;;49.47;33.47;;;20.00;99.90;;;;;;4999498;28;20456;-85
2021/07/14 04:51:28;;;;;;;47.63;34.10;;;20.00;99.90;;;;;;5001143;28;20542;-85
2021/07/14 04:53:55;;;;;;;56.03;37.47;;;19.90;99.90;;;;;;5000739;28;20475;-86
2021/07/14 04:56:23;;;;;;;47.03;34.43;;;19.90;99.90;;;;;;5005714;28;20458;-86
2021/07/14 04:58:52;;;;;;;44.03;32.47;;;20.00;99.90;;;;;;5026567;28;20557;-85
2021/07/14 05:01:19;;;;;;;51.70;36.00;;;20.00;99.90;;;;;;5026105;28;20443;-85
2021/07/14 05:03:47;;;;;;;49.97;34.13;;;20.00;99.90;;;;;;5020331;28;20625;-85
2021/07/14 05:06:17;;;;;;;43.70;34.03;;;20.00;99.90;;;;;;5021973;28;20468;-85
2021/07/14 05:08:45;;;;;;;46.43;33.00;;;20.00;99.90;;;;;;5020375;28;20837;-85
2021/07/14 05:11:12;;;;;;;49.43;32.97;;;20.00;99.90;;;;;;5019586;28;20449;-85
2021/07/14 05:13:39;;;;;;;54.57;37.03;;;20.00;99.90;;;;;;5019527;28;20492;-85
2021/07/14 05:16:08;;;;;;;49.20;33.07;;;19.90;99.90;;;;;;5021329;28;20461;-85
2021/07/14 05:18:35;;;;;;;44.23;32.37;;;19.90;99.90;;;;;;5020096;28;20454;-85
2021/07/14 05:21:02;;;;;;;45.83;32.10;;;20.00;99.90;;;;;;5020349;28;21042;-86
2021/07/14 05:23:30;;;;;;;50.77;35.73;;;20.00;99.90;;;;;;5021719;28;20445;-85
2021/07/14 05:25:57;;;;;;;45.70;33.10;;;19.90;99.90;;;;;;5022401;28;20433;-85
2021/07/14 05:28:24;;;;;;;47.10;32.00;;;20.00;99.90;;;;;;5018505;28;20472;-85
2021/07/14 05:30:51;;;;;;;56.80;37.53;;;20.00;99.90;;;;;;5021543;28;20460;-86
2021/07/14 05:33:18;;;;;;;46.80;32.57;;;20.00;99.90;;;;;;5021392;28;20561;-85
2021/07/14 05:35:46;;;;;;;46.67;32.20;;;20.00;99.90;;;;;;5021953;28;20458;-84
2021/07/14 05:38:18;;;;;;;43.30;32.47;;;19.90;99.90;;;;;;5018692;28;20556;-85
2021/07/14 05:40:47;;;;;;;47.03;31.77;;;19.90;99.90;;;;;;5019185;28;20453;-85
2021/07/14 05:43:14;;;;;;;50.83;33.70;;;20.00;99.90;;;;;;5018690;28;20453;-85
2021/07/14 05:45:40;;;;;;;47.47;31.83;;;19.90;99.90;;;;;;5018494;28;20522;-86
2021/07/14 05:48:07;;;;;;;47.40;33.80;;;19.90;99.90;;;;;;5011705;28;20470;-85
2021/07/14 05:50:35;;;;;;;45.43;31.50;;;19.90;99.90;;;;;;5000297;28;20526;-85
2021/07/14 05:53:01;;;;;;;44.13;30.27;;;20.00;99.90;;;;;;5002270;28;20525;-85
2021/07/14 05:55:29;;;;;;;48.23;32.83;;;20.00;99.90;;;;;;4999229;28;20450;-85
2021/07/14 05:57:57;;;;;;;42.70;30.60;;;20.00;99.90;;;;;;4997748;28;20492;-86
2021/07/14 06:00:24;;;;;;;44.67;31.43;;;20.00;99.90;;;;;;4997734;28;20446;-86
2021/07/14 06:02:50;;;;;;;42.50;31.47;;;20.00;99.90;;;;;;5016490;28;20453;-86
2021/07/14 06:05:17;;;;;;;42.77;28.47;;;20.00;99.90;;;;;;5016335;28;20450;-86
2021/07/14 06:07:44;;;;;;;49.40;30.90;;;20.10;99.90;;;;;;5019342;28;20859;-85
2021/07/14 06:10:11;;;;;;;36.27;27.00;;;20.00;99.90;;;;;;5022629;28;21037;-86
2021/07/14 06:12:38;;;;;;;43.17;28.50;;;20.00;99.90;;;;;;5024146;28;20830;-86
2021/07/14 06:15:07;;;;;;;42.77;29.23;;;20.10;99.90;;;;;;5022952;28;20477;-86
2021/07/14 06:17:34;;;;;;;41.67;28.17;;;20.10;99.90;;;;;;5021172;28;20470;-85
2021/07/14 06:20:02;;;;;;;39.10;27.80;;;20.10;99.90;;;;;;5026356;28;20517;-85
2021/07/14 06:22:29;;;;;;;45.03;28.47;;;20.10;99.90;;;;;;5025230;28;20472;-85
2021/07/14 06:24:56;;;;;;;41.50;28.20;;;20.00;99.90;;;;;;5024168;28;20469;-85
2021/07/14 06:27:23;;;;;;;41.80;29.10;;;20.00;99.90;;;;;;5021018;28;20471;-85
2021/07/14 06:29:50;;;;;;;41.93;28.93;;;20.00;99.90;;;;;;5021807;28;20442;-86
2021/07/14 06:32:21;;;;;;;42.80;27.70;;;20.10;99.90;;;;;;5021075;28;20526;-85
2021/07/14 06:34:48;;;;;;;35.70;24.93;;;20.20;99.90;;;;;;5021456;28;20556;-86
2021/07/14 06:37:18;;;;;;;39.60;25.97;;;20.00;99.90;;;;;;5019662;28;20861;-86
2021/07/14 06:39:45;;;;;;;47.33;26.13;;;20.10;99.90;;;;;;5015499;28;20537;-87
2021/07/14 06:42:11;;;;;;;38.87;26.47;;;20.10;99.90;;;;;;5016698;28;20829;-85
2021/07/14 06:44:38;;;;;;;36.47;26.10;;;20.00;99.90;;;;;;5010282;28;20862;-85
2021/07/14 06:47:05;;;;;;;40.70;24.57;;;20.00;99.90;;;;;;5020737;28;20469;-84
2021/07/14 06:49:33;;;;;;;42.60;26.30;;;20.00;99.90;;;;;;5002466;28;20465;-86
2021/07/14 06:52:01;;;;;;;37.97;25.60;;;20.00;99.90;;;;;;5014017;28;20545;-86
2021/07/14 06:54:28;;;;;;;38.17;26.60;;;20.00;99.90;;;;;;5021843;28;20489;-85
2021/07/14 06:56:55;;;;;;;36.63;24.40;;;20.10;99.90;;;;;;5021812;28;20468;-85
2021/07/14 06:59:22;;;;;;;43.00;27.10;;;20.00;99.90;;;;;;5022050;28;20552;-84
2021/07/14 07:01:49;;;;;;;39.47;26.40;;;20.00;99.90;;;;;;5015904;28;20565;-84
2021/07/14 07:04:16;;;;;;;36.83;26.43;;;20.00;99.90;;;;;;5019201;28;20477;-85
2021/07/14 07:06:44;;;;;;;35.73;24.80;;;20.00;99.90;;;;;;5018654;28;20862;-84
2021/07/14 07:09:11;;;;;;;31.47;22.37;;;20.00;99.90;;;;;;5013916;28;20514;-85
2021/07/14 07:11:37;;;;;;;32.83;23.53;;;20.10;99.90;;;;;;5002879;28;20462;-84
2021/07/14 07:14:05;;;;;;;31.60;23.43;;;20.10;99.90;;;;;;5018906;28;20489;-85
2021/07/14 07:16:32;;;;;;;35.73;23.70;;;20.10;99.90;;;;;;5021643;28;20604;-86
2021/07/14 07:18:59;;;;;;;27.53;19.80;;;20.10;99.90;;;;;;5029797;28;20909;-84
2021/07/14 07:21:26;;;;;;;29.03;20.33;;;20.10;99.90;;;;;;5030211;28;20457;-84
2021/07/14 07:23:55;;;;;;;35.60;21.33;;;20.10;99.90;;;;;;5029231;28;20453;-84
2021/07/14 07:26:22;;;;;;;24.67;17.87;;;20.00;99.90;;;;;;5027610;28;20449;-85
2021/07/14 07:28:56;;;;;;;21.57;16.90;;;20.00;99.90;;;;;;5041471;28;20461;-85
2021/07/14 07:31:23;;;;;;;23.43;17.67;;;20.00;99.90;;;;;;5040926;28;20534;-84
2021/07/14 07:33:51;;;;;;;35.80;20.07;;;20.00;99.90;;;;;;5034511;28;20564;-85
2021/07/14 07:36:18;;;;;;;23.00;17.47;;;20.00;99.90;;;;;;5022515;28;20517;-84
2021/07/14 07:38:45;;;;;;;25.13;16.00;;;20.00;99.90;;;;;;5031384;28;20481;-85
2021/07/14 07:41:14;;;;;;;21.13;15.17;;;20.00;99.90;;;;;;5036252;28;20845;-86
2021/07/14 07:43:41;;;;;;;18.40;13.67;;;19.90;99.90;;;;;;5035148;28;20450;-86
2021/07/14 07:46:09;;;;;;;21.60;14.60;;;20.00;99.90;;;;;;5043952;28;20469;-86
2021/07/14 07:48:37;;;;;;;21.10;14.17;;;20.00;99.90;;;;;;5050169;28;20440;-85
2021/07/14 07:51:04;;;;;;;19.37;14.00;;;20.10;99.90;;;;;;5056108;28;20457;-86
2021/07/14 07:53:31;;;;;;;19.60;13.50;;;20.00;99.90;;;;;;5048561;28;20522;-86
2021/07/14 07:55:58;;;;;;;20.87;13.40;;;20.10;99.90;;;;;;5025384;28;20482;-85
2021/07/14 07:58:27;;;;;;;18.20;11.63;;;20.10;99.90;;;;;;5012120;28;20494;-85
2021/07/14 08:00:55;;;;;;;21.17;14.00;;;20.00;99.90;;;;;;5013169;28;20438;-86
2021/07/14 08:03:22;;;;;;;22.87;14.37;;;20.10;99.90;;;;;;5011056;28;20446;-86
2021/07/14 08:05:49;;;;;;;27.10;17.00;;;20.00;99.90;;;;;;5011163;28;20477;-87
2021/07/14 08:08:16;;;;;;;22.67;15.13;;;20.00;99.90;;;;;;4997839;28;20482;-86
2021/07/14 08:10:44;;;;;;;22.73;15.93;;;20.00;99.90;;;;;;5004387;28;20453;-86
2021/07/14 08:13:11;;;;;;;27.97;16.70;;;20.00;99.90;;;;;;5020460;28;20442;-86
2021/07/14 08:15:39;;;;;;;23.67;15.53;;;20.00;99.90;;;;;;5017651;28;20492;-85
2021/07/14 08:18:06;;;;;;;26.70;16.40;;;20.10;99.90;;;;;;5013461;28;20560;-86
2021/07/14 08:20:34;;;;;;;25.07;16.50;;;20.20;99.90;;;;;;5019471;28;20460;-86
2021/07/14 08:23:01;;;;;;;25.50;16.73;;;20.20;99.90;;;;;;5021025;28;20467;-86
2021/07/14 08:25:27;;;;;;;24.17;16.53;;;20.20;99.90;;;;;;5017900;28;20951;-86
2021/07/14 08:27:54;;;;;;;27.70;16.73;;;20.20;99.90;;;;;;5017609;28;20481;-85
2021/07/14 08:30:21;;;;;;;29.00;15.80;;;20.20;99.90;;;;;;5017487;28;20446;-86
2021/07/14 08:32:50;;;;;;;36.20;22.00;;;20.30;99.90;;;;;;5017940;28;20974;-86
2021/07/14 08:35:17;;;;;;;23.27;17.20;;;20.20;99.90;;;;;;5020749;28;20489;-85
2021/07/14 08:37:44;;;;;;;40.30;22.83;;;20.20;99.90;;;;;;5021934;28;20465;-86
2021/07/14 08:40:12;;;;;;;32.40;19.77;;;20.20;99.90;;;;;;5030523;28;20457;-86
2021/07/14 08:42:42;;;;;;;32.73;20.30;;;20.10;99.90;;;;;;5020452;28;20469;-86
2021/07/14 08:45:12;;;;;;;36.77;23.30;;;20.20;99.90;;;;;;5027050;28;20458;-85
2021/07/14 08:47:39;;;;;;;41.60;23.70;;;20.20;99.90;;;;;;5033097;28;20556;-85
2021/07/14 08:50:10;;;;;;;35.70;22.83;;;20.20;99.90;;;;;;5025638;28;20521;-85
2021/07/14 08:52:42;;;;;;;41.03;23.10;;;20.20;99.90;;;;;;5027358;28;20445;-86
2021/07/14 08:55:11;;;;;;;39.00;22.87;;;20.30;99.90;;;;;;5012818;28;20501;-86
2021/07/14 08:57:38;;;;;;;40.23;20.80;;;20.20;99.90;;;;;;5017766;28;20559;-86
2021/07/14 09:00:07;;;;;;;36.00;21.57;;;20.20;99.90;;;;;;5028083;28;20520;-85
2021/07/14 09:02:35;;;;;;;43.63;25.03;;;20.30;99.90;;;;;;5035086;28;20457;-85
2021/07/14 09:05:02;;;;;;;36.27;22.77;;;20.30;99.90;;;;;;5011033;28;20455;-86
2021/07/14 09:07:31;;;;;;;43.70;25.87;;;20.20;99.90;;;;;;5002302;28;20514;-85
2021/07/14 09:09:58;;;;;;;35.87;21.93;;;20.30;99.90;;;;;;5001740;28;20439;-85
2021/07/14 09:12:36;;;;;;;42.10;24.90;;;20.30;99.90;;;;;;5002627;28;20526;-85
2021/07/14 09:15:06;;;;;;;33.80;22.27;;;20.40;99.90;;;;;;5023806;28;21020;-86
2021/07/14 09:17:42;;;;;;;37.30;23.77;;;20.50;99.90;;;;;;5031885;28;20556;-85
2021/07/14 09:20:11;;;;;;;43.33;26.57;;;20.50;99.90;;;;;;5022894;28;20448;-85
2021/07/14 09:22:40;;;;;;;36.57;24.30;;;20.50;99.90;;;;;;5019101;28;20552;-85
2021/07/14 09:25:12;;;;;;;37.60;22.60;;;20.50;99.90;;;;;;5023319;28;20965;-85
2021/07/14 09:27:53;;;;;;;36.93;22.67;;;20.50;99.90;;;;;;5024772;28;20473;-86
2021/07/14 09:30:23;;;;;;;35.57;22.00;;;20.50;99.90;;;;;;5026343;28;20524;-86
2021/07/14 09:33:02;;;;;;;41.57;22.67;;;20.60;99.90;;;;;;5029258;28;20807;-86
2021/07/14 09:35:42;;;;;;;35.00;21.20;;;20.60;99.90;;;;;;5006973;28;20486;-88
2021/07/14 09:38:12;;;;;;;37.53;22.87;;;20.60;99.90;;;;;;5005928;28;20480;-86
2021/07/14 09:40:41;;;;;;;37.47;21.47;;;20.50;99.90;;;;;;5022255;28;20543;-86
2021/07/14 09:43:11;;;;;;;33.00;21.53;;;20.60;99.90;;;;;;5038692;28;20508;-85
2021/07/14 09:45:56;;;;;;;37.87;22.90;;;20.50;99.90;;;;;;5044617;28;20471;-86
2021/07/14 09:48:25;;;;;;;34.90;21.87;;;20.50;99.90;;;;;;5033291;28;20552;-86
2021/07/14 09:50:55;;;;;;;35.00;21.30;;;20.50;99.90;;;;;;5032901;28;21036;-86
2021/07/14 09:53:25;;;;;;;34.87;20.13;;;20.50;99.90;;;;;;5031938;28;20509;-86
2021/07/14 09:55:55;;;;;;;43.83;23.00;;;20.50;99.90;;;;;;5035770;28;20529;-86
2021/07/14 09:58:29;;;;;;;34.73;22.03;;;20.50;99.90;;;;;;5034792;28;20453;-82
2021/07/14 10:00:58;;;;;;;32.53;21.53;;;20.60;99.90;;;;;;5036664;28;20445;-83
2021/07/14 10:03:27;;;;;;;39.33;23.60;;;20.60;99.90;;;;;;5036121;28;20485;-83
2021/07/14 10:06:11;;;;;;;33.70;22.23;;;20.50;99.90;;;;;;5036975;28;20445;-83
2021/07/14 10:08:41;;;;;;;37.93;22.73;;;20.50;99.90;;;;;;5035186;28;20456;-83
2021/07/14 10:11:10;;;;;;;35.40;21.70;;;20.60;99.90;;;;;;5037040;28;20533;-84
2021/07/14 10:13:38;;;;;;;36.47;20.90;;;20.60;99.90;;;;;;5036594;28;20485;-85
2021/07/14 10:16:06;;;;;;;35.10;23.47;;;20.60;99.90;;;;;;5030366;28;20510;-84
2021/07/14 10:18:33;;;;;;;35.30;21.53;;;20.70;99.90;;;;;;5038460;28;20509;-84
2021/07/14 10:21:03;;;;;;;34.20;22.17;;;20.70;99.90;;;;;;5037018;28;20442;-86
2021/07/14 10:23:30;;;;;;;36.20;21.60;;;20.70;99.90;;;;;;5031458;28;20458;-86
2021/07/14 10:26:00;;;;;;;35.70;22.37;;;20.70;99.90;;;;;;5039305;28;20473;-86
2021/07/14 10:28:29;;;;;;;32.60;21.90;;;20.80;99.90;;;;;;5035810;28;20500;-86
2021/07/14 10:30:57;;;;;;;34.47;22.93;;;20.80;99.90;;;;;;5043963;28;20506;-86
2021/07/14 10:33:26;;;;;;;29.80;21.07;;;20.80;99.90;;;;;;5048093;28;20485;-86
2021/07/14 10:35:58;;;;;;;33.80;22.20;;;20.90;99.90;;;;;;5030820;28;20492;-87
2021/07/14 10:38:28;;;;;;;35.00;23.13;;;20.80;99.90;;;;;;5034202;28;20465;-87
2021/07/14 10:40:56;;;;;;;32.17;20.93;;;20.80;99.90;;;;;;5034770;28;20521;-87
2021/07/14 10:43:26;;;;;;;33.50;22.20;;;20.80;99.90;;;;;;5035730;28;20492;-87
2021/07/14 10:45:53;;;;;;;36.07;23.07;;;20.70;99.90;;;;;;5035643;28;20430;-86
2021/07/14 10:48:22;;;;;;;53.43;28.37;;;20.80;99.90;;;;;;5034941;28;20464;-85
2021/07/14 10:50:49;;;;;;;40.00;27.10;;;20.70;99.90;;;;;;5035895;28;20449;-86
2021/07/14 10:53:17;;;;;;;34.43;23.90;;;20.70;99.90;;;;;;5033535;28;20450;-87
2021/07/14 10:55:46;;;;;;;37.83;23.50;;;20.70;99.90;;;;;;5037226;28;20474;-86
2021/07/14 10:58:17;;;;;;;43.63;25.60;;;20.70;99.90;;;;;;5032396;28;20477;-86
2021/07/14 11:00:47;;;;;;;42.37;27.10;;;20.70;99.90;;;;;;5034291;28;20488;-86
2021/07/14 11:03:44;;;;;;;56.00;31.97;;;20.70;99.90;;;;;;5043391;28;20475;-85
2021/07/14 11:06:18;;;;;;;42.27;27.00;;;20.60;99.90;;;;;;5025368;28;20479;-87
2021/07/14 11:08:47;;;;;;;39.90;26.87;;;20.40;99.90;;;;;;5029698;28;20481;-88
2021/07/14 11:11:19;;;;;;;44.27;28.63;;;20.60;99.90;;;;;;5036983;28;20798;-87
2021/07/14 11:13:51;;;;;;;49.27;30.37;;;20.60;99.90;;;;;;5025237;28;20454;-86
2021/07/14 11:16:28;;;;;;;46.80;28.90;;;20.70;99.90;;;;;;5028500;28;21060;-86
2021/07/14 11:19:12;;;;;;;49.93;31.87;;;20.70;99.90;;;;;;5020180;28;20491;-86
2021/07/14 11:21:54;;;;;;;46.20;30.47;;;20.60;99.90;;;;;;5033639;28;20461;-88
2021/07/14 11:24:54;;;;;;;45.37;28.70;;;20.70;99.90;;;;;;5033905;28;20445;-86
2021/07/14 11:27:48;;;;;;;47.93;30.80;;;20.70;99.90;;;;;;5038880;28;20536;-87
2021/07/14 11:30:35;;;;;;;45.23;30.20;;;20.70;99.90;;;;;;5040497;28;20465;-87
2021/07/14 11:33:05;;;;;;;47.83;32.90;;;20.70;99.90;;;;;;5037308;28;20505;-87
2021/07/14 11:35:49;;;;;;;48.23;32.23;;;20.80;99.90;;;;;;5036982;28;20492;-86
2021/07/14 11:38:19;;;;;;;52.03;34.43;;;20.80;99.90;;;;;;5034723;28;21035;-87
2021/07/14 11:40:48;;;;;;;51.77;32.13;;;20.80;99.90;;;;;;5036038;28;20410;-86
2021/07/14 11:43:20;;;;;;;49.57;31.90;;;20.80;99.90;;;;;;5036166;28;20509;-85
2021/07/14 11:45:48;;;;;;;52.57;33.83;;;20.80;99.90;;;;;;5035133;28;20464;-86
2021/07/14 11:48:27;;;;;;;50.20;36.40;;;20.80;99.90;;;;;;5036798;28;20490;-85
2021/07/14 11:50:56;;;;;;;52.83;36.57;;;20.80;99.90;;;;;;5035668;28;20464;-85
2021/07/14 11:53:34;;;;;;;51.47;34.70;;;20.80;99.90;;;;;;5037119;28;20433;-87
2021/07/14 11:56:03;;;;;;;54.93;35.50;;;20.80;99.90;;;;;;5027536;28;20504;-86
2021/07/14 11:58:54;;;;;;;53.57;36.87;;;20.90;99.90;;;;;;5017549;28;20478;-85
2021/07/14 12:01:51;;;;;;;55.47;36.27;;;20.90;99.90;;;;;;5016690;28;20764;-86
2021/07/14 12:04:21;;;;;;;51.17;34.47;;;21.00;99.90;;;;;;5048314;28;20475;-85
2021/07/14 12:06:50;;;;;;;52.57;37.43;;;21.00;99.90;;;;;;5049710;28;20496;-85
2021/07/14 12:09:29;;;;;;;48.67;33.70;;;21.00;99.90;;;;;;5036440;28;20480;-86
2021/07/14 12:11:58;;;;;;;50.90;36.10;;;21.10;99.90;;;;;;5034708;28;20430;-87
2021/07/14 12:14:26;;;;;;;49.93;33.93;;;21.10;99.90;;;;;;5017291;28;20510;-85
2021/07/14 12:16:55;;;;;;;52.93;35.57;;;21.10;99.90;;;;;;5016249;28;20487;-86
2021/07/14 12:19:26;;;;;;;53.43;35.60;;;21.10;99.90;;;;;;5024325;28;20465;-86
2021/07/14 12:21:54;;;;;;;48.33;35.87;;;21.10;99.90;;;;;;5016482;28;20485;-86
2021/07/14 12:24:30;;;;;;;50.00;36.87;;;21.00;99.90;;;;;;5028492;28;20521;-85
2021/07/14 12:27:03;;;;;;;61.00;40.50;;;21.10;99.90;;;;;;5024081;28;20470;-85
2021/07/14 12:29:30;;;;;;;53.07;36.13;;;21.00;99.90;;;;;;5029335;28;20521;-86
2021/07/14 12:31:58;;;;;;;46.73;36.00;;;21.00;99.90;;;;;;5034979;28;20473;-84
2021/07/14 12:34:28;;;;;;;50.53;33.97;;;21.00;99.90;;;;;;5021750;28;20465;-85
2021/07/14 12:36:56;;;;;;;48.77;34.00;;;21.00;99.90;;;;;;5043133;28;20516;-85
2021/07/14 12:39:25;;;;;;;56.00;36.23;;;21.00;99.90;;;;;;5035606;28;20469;-85
2021/07/14 12:41:54;;;;;;;49.50;36.33;;;21.10;99.90;;;;;;5034969;28;20465;-86
2021/07/14 12:44:21;;;;;;;52.87;36.70;;;21.10;99.90;;;;;;5031873;28;20520;-85